Time;durP1;ratioP1;P1;durP2;ratioP2;P2;SDS_P1;SDS_P2;PMS_P1;PMS_P2;Temp;Humidity;BMP_temperature;BMP_pressure;BME280_temperature;BME280_humidity;BME280_pressure;Samples;Min_cycle;Max_cycle;Signal;HPM_P1;HPM_P2
2023/07/29 00:02:22;;;;;;;;;;;22.30;63.90;;;;;;5043821;28;19948;-55
2023/07/29 00:04:49;;;;;;;;;;;22.30;63.80;;;;;;5052577;28;20027;-58
2023/07/29 00:07:15;;;;;;;;;;;22.30;63.80;;;;;;5051560;28;19928;-57
2023/07/29 00:09:42;;;;;;;;;;;22.30;63.80;;;;;;5041630;28;19925;-58
2023/07/29 00:12:09;;;;;;;;;;;22.30;63.80;;;;;;5048069;28;19925;-56
2023/07/29 00:14:36;;;;;;;;;;;22.30;63.80;;;;;;5051007;28;20027;-56
2023/07/29 00:17:02;;;;;;;;;;;22.30;63.80;;;;;;5048558;28;19925;-55
2023/07/29 00:19:32;;;;;;;;;;;22.30;63.80;;;;;;5050578;28;19925;-57
2023/07/29 00:21:59;;;;;;;;;;;22.30;63.80;;;;;;5050029;28;20028;-54
2023/07/29 00:24:25;;;;;;;;;;;22.30;63.80;;;;;;5043656;28;19924;-58
2023/07/29 00:26:52;;;;;;;;;;;22.30;63.80;;;;;;5045341;28;19931;-57
2023/07/29 00:29:19;;;;;;;;;;;22.30;63.90;;;;;;5038537;28;19975;-55
2023/07/29 00:31:46;;;;;;;;;;;22.30;63.80;;;;;;5045198;28;19929;-58
2023/07/29 00:34:17;;;;;;;;;;;22.30;63.80;;;;;;5049257;28;19944;-57
2023/07/29 00:36:45;;;;;;;;;;;22.30;64.60;;;;;;5044263;28;20374;-55
2023/07/29 00:39:12;;;;;;;;;;;22.30;63.80;;;;;;5045578;28;19933;-58
2023/07/29 00:41:39;;;;;;;;;;;22.30;63.80;;;;;;5042680;28;20546;-58
2023/07/29 00:44:05;;;;;;;;;;;22.30;63.80;;;;;;5049631;28;19932;-56
2023/07/29 00:46:34;;;;;;;;;;;22.30;63.80;;;;;;5031140;28;19959;-57
2023/07/29 00:49:00;;;;;;;;;;;22.30;63.80;;;;;;5041957;28;19925;-57
2023/07/29 00:51:27;;;;;;;;;;;22.30;63.80;;;;;;5039048;28;19929;-54
2023/07/29 00:53:55;;;;;;;;;;;22.30;63.80;;;;;;5050369;28;19947;-57
2023/07/29 00:56:22;;;;;;;;;;;22.30;63.80;;;;;;5031599;28;19925;-57
2023/07/29 00:58:49;;;;;;;;;;;22.30;63.80;;;;;;5044555;28;19925;-56
2023/07/29 01:01:16;;;;;;;;;;;22.30;63.90;;;;;;5044927;28;19932;-56
2023/07/29 01:03:45;;;;;;;;;;;22.30;63.90;;;;;;5048830;28;20011;-56
2023/07/29 01:06:13;;;;;;;;;;;22.30;63.90;;;;;;5049347;28;19925;-56
2023/07/29 01:08:44;;;;;;;;;;;22.30;64.00;;;;;;5045729;28;20024;-56
2023/07/29 01:11:15;;;;;;;;;;;22.30;64.00;;;;;;5049028;28;19978;-56
2023/07/29 01:13:42;;;;;;;;;;;22.30;64.00;;;;;;5038064;28;20374;-57
2023/07/29 01:16:10;;;;;;;;;;;22.30;64.00;;;;;;5039877;28;19924;-56
2023/07/29 01:18:37;;;;;;;;;;;22.30;64.00;;;;;;5039169;28;19952;-56
2023/07/29 01:21:04;;;;;;;;;;;22.30;64.00;;;;;;5047640;28;19943;-55
2023/07/29 01:23:32;;;;;;;;;;;22.30;64.00;;;;;;5066170;28;19921;-58
2023/07/29 01:25:59;;;;;;;;;;;22.30;64.00;;;;;;5045258;28;20006;-57
2023/07/29 01:28:26;;;;;;;;;;;22.30;64.00;;;;;;5046623;28;19982;-57
2023/07/29 01:30:53;;;;;;;;;;;22.30;64.00;;;;;;5041602;28;19925;-56
2023/07/29 01:33:21;;;;;;;;;;;22.30;64.00;;;;;;5048003;28;19971;-56
2023/07/29 01:35:48;;;;;;;;;;;22.30;63.90;;;;;;5037413;28;19967;-55
2023/07/29 01:38:25;;;;;;;;;;;22.30;63.90;;;;;;5045089;28;19925;-56
2023/07/29 01:40:53;;;;;;;;;;;22.30;63.90;;;;;;5041945;28;19928;-57
2023/07/29 01:43:23;;;;;;;;;;;22.30;64.00;;;;;;5047906;28;19936;-57
2023/07/29 01:45:50;;;;;;;;;;;22.30;64.10;;;;;;5037450;28;19928;-56
2023/07/29 01:48:17;;;;;;;;;;;22.30;64.00;;;;;;5043870;28;19933;-56
2023/07/29 01:50:44;;;;;;;;;;;22.30;64.10;;;;;;5044591;28;19979;-55
2023/07/29 01:53:10;;;;;;;;;;;22.30;64.10;;;;;;5045060;28;19925;-55
2023/07/29 01:55:37;;;;;;;;;;;22.30;64.10;;;;;;5050198;28;19928;-56
2023/07/29 01:58:05;;;;;;;;;;;22.30;64.10;;;;;;5050103;28;20328;-54
2023/07/29 02:00:32;;;;;;;;;;;22.30;64.10;;;;;;5042586;28;19928;-55
2023/07/29 02:02:59;;;;;;;;;;;22.30;64.10;;;;;;5049253;28;19986;-57
2023/07/29 02:05:25;;;;;;;;;;;22.30;64.10;;;;;;5039798;28;19925;-55
2023/07/29 02:07:52;;;;;;;;;;;22.30;64.10;;;;;;5065798;28;19932;-57
2023/07/29 02:10:19;;;;;;;;;;;22.30;64.10;;;;;;5049444;28;19948;-57
2023/07/29 02:12:46;;;;;;;;;;;22.30;64.10;;;;;;5048925;28;19932;-57
2023/07/29 02:15:14;;;;;;;;;;;22.30;64.10;;;;;;5041993;28;19925;-56
2023/07/29 02:17:41;;;;;;;;;;;22.30;64.00;;;;;;5039247;28;19980;-57
2023/07/29 02:20:10;;;;;;;;;;;22.30;64.10;;;;;;5045156;28;19929;-55
2023/07/29 02:22:37;;;;;;;;;;;22.30;64.10;;;;;;5042637;28;19948;-56
2023/07/29 02:25:04;;;;;;;;;;;22.30;64.10;;;;;;5051362;28;19932;-57
2023/07/29 02:27:31;;;;;;;;;;;22.30;64.10;;;;;;5040287;28;19960;-56
2023/07/29 02:29:57;;;;;;;;;;;22.30;64.10;;;;;;5051180;28;19928;-57
2023/07/29 02:32:26;;;;;;;;;;;22.30;64.10;;;;;;5067294;28;19929;-56
2023/07/29 02:34:52;;;;;;;;;;;22.30;64.10;;;;;;5042651;28;19936;-57
2023/07/29 02:37:19;;;;;;;;;;;22.30;64.10;;;;;;5050157;28;19925;-57
2023/07/29 02:39:46;;;;;;;;;;;22.30;64.10;;;;;;5048030;28;19929;-57
2023/07/29 02:42:13;;;;;;;;;;;22.30;64.20;;;;;;5066911;28;20366;-56
2023/07/29 02:44:40;;;;;;;;;;;22.30;64.20;;;;;;5051264;28;19929;-57
2023/07/29 02:47:07;;;;;;;;;;;22.30;64.20;;;;;;5045476;28;19929;-57
2023/07/29 02:49:35;;;;;;;;;;;22.30;64.30;;;;;;5049201;28;19987;-56
2023/07/29 02:52:02;;;;;;;;;;;22.30;64.30;;;;;;5054708;28;19932;-58
2023/07/29 02:54:29;;;;;;;;;;;22.30;64.30;;;;;;5053202;28;19925;-56
2023/07/29 02:56:55;;;;;;;;;;;22.30;64.20;;;;;;5054849;28;19935;-57
2023/07/29 02:59:22;;;;;;;;;;;22.30;64.20;;;;;;5053444;28;19995;-56
2023/07/29 03:01:49;;;;;;;;;;;22.30;64.20;;;;;;5054133;28;19934;-56
2023/07/29 03:04:16;;;;;;;;;;;22.30;64.10;;;;;;5053240;28;19925;-54
2023/07/29 03:06:44;;;;;;;;;;;22.30;64.10;;;;;;5052851;28;19924;-57
2023/07/29 03:09:11;;;;;;;;;;;22.30;64.10;;;;;;5053006;28;19924;-57
2023/07/29 03:11:38;;;;;;;;;;;22.30;64.10;;;;;;5054362;28;19955;-56
2023/07/29 03:14:04;;;;;;;;;;;22.30;64.10;;;;;;5053060;28;19928;-57
2023/07/29 03:16:31;;;;;;;;;;;22.30;64.20;;;;;;5059698;28;19925;-56
2023/07/29 03:19:00;;;;;;;;;;;22.30;64.20;;;;;;5053049;28;19928;-57
2023/07/29 03:21:27;;;;;;;;;;;22.30;64.10;;;;;;5033086;28;19936;-56
2023/07/29 03:23:55;;;;;;;;;;;22.30;64.20;;;;;;5048877;28;19929;-56
2023/07/29 03:26:22;;;;;;;;;;;22.30;64.10;;;;;;5043657;28;19936;-57
2023/07/29 03:28:48;;;;;;;;;;;22.30;64.20;;;;;;5053262;28;19936;-57
2023/07/29 03:31:15;;;;;;;;;;;22.30;64.20;;;;;;5051126;28;19975;-56
2023/07/29 03:33:42;;;;;;;;;;;22.30;64.20;;;;;;5063814;28;19925;-57
2023/07/29 03:36:09;;;;;;;;;;;22.30;64.20;;;;;;5050280;28;19943;-56
2023/07/29 03:38:39;;;;;;;;;;;22.30;64.20;;;;;;5047838;28;20329;-57
2023/07/29 03:41:08;;;;;;;;;;;22.30;64.20;;;;;;5067298;28;19988;-57
2023/07/29 03:43:35;;;;;;;;;;;22.30;64.20;;;;;;5069155;28;19971;-56
2023/07/29 03:46:01;;;;;;;;;;;22.30;64.20;;;;;;5052523;28;19925;-56
2023/07/29 03:48:28;;;;;;;;;;;22.30;64.20;;;;;;5049384;28;20390;-57
2023/07/29 03:50:55;;;;;;;;;;;22.30;64.30;;;;;;5040879;28;19924;-57
2023/07/29 03:53:22;;;;;;;;;;;22.30;64.30;;;;;;5052632;28;19987;-57
2023/07/29 03:55:49;;;;;;;;;;;22.30;64.20;;;;;;5047405;28;19933;-57
2023/07/29 03:58:18;;;;;;;;;;;22.30;64.20;;;;;;5052353;28;19943;-57
2023/07/29 04:00:44;;;;;;;;;;;22.30;64.20;;;;;;5068487;28;19955;-57
2023/07/29 04:03:11;;;;;;;;;;;22.30;64.20;;;;;;5051331;28;19931;-56
2023/07/29 04:05:38;;;;;;;;;;;22.30;64.20;;;;;;5052262;28;19931;-58
2023/07/29 04:08:05;;;;;;;;;;;22.30;64.10;;;;;;5054527;28;19925;-57
2023/07/29 04:10:32;;;;;;;;;;;22.30;64.10;;;;;;5044142;28;19967;-57
2023/07/29 04:12:58;;;;;;;;;;;22.30;64.10;;;;;;5048442;28;19929;-58
2023/07/29 04:15:27;;;;;;;;;;;22.30;64.10;;;;;;5043477;28;19924;-58
2023/07/29 04:17:53;;;;;;;;;;;22.30;64.10;;;;;;5053026;28;19970;-55
2023/07/29 04:20:20;;;;;;;;;;;22.30;64.10;;;;;;5052581;28;19929;-58
2023/07/29 04:22:47;;;;;;;;;;;22.30;64.00;;;;;;5051140;28;19998;-58
2023/07/29 04:25:14;;;;;;;;;;;22.30;64.10;;;;;;5047369;28;19925;-58
2023/07/29 04:27:40;;;;;;;;;;;22.30;64.10;;;;;;5052486;28;19967;-58
2023/07/29 04:30:08;;;;;;;;;;;22.30;64.10;;;;;;5035894;28;19929;-56
2023/07/29 04:32:36;;;;;;;;;;;22.30;64.10;;;;;;5045529;28;19925;-58
2023/07/29 04:35:02;;;;;;;;;;;22.30;64.10;;;;;;5048421;28;19960;-57
2023/07/29 04:37:29;;;;;;;;;;;22.30;64.10;;;;;;5043939;28;19925;-57
2023/07/29 04:39:56;;;;;;;;;;;22.30;64.10;;;;;;5049260;28;19925;-58
2023/07/29 04:42:23;;;;;;;;;;;22.30;64.10;;;;;;5051175;28;19932;-57
2023/07/29 04:44:50;;;;;;;;;;;22.30;64.10;;;;;;5052463;28;19931;-56
2023/07/29 04:47:16;;;;;;;;;;;22.30;64.10;;;;;;5050279;28;20332;-57
2023/07/29 04:49:45;;;;;;;;;;;22.30;64.10;;;;;;5045453;28;20133;-57
2023/07/29 04:52:11;;;;;;;;;;;22.30;64.10;;;;;;5050523;28;19924;-57
2023/07/29 04:54:38;;;;;;;;;;;22.30;64.10;;;;;;5038339;28;19925;-56
2023/07/29 04:57:05;;;;;;;;;;;22.30;64.10;;;;;;5048738;28;19928;-57
2023/07/29 04:59:32;;;;;;;;;;;22.30;64.10;;;;;;5045531;28;19925;-58
2023/07/29 05:01:59;;;;;;;;;;;22.30;64.10;;;;;;5043565;28;20011;-57
2023/07/29 05:04:25;;;;;;;;;;;22.30;64.10;;;;;;5048219;28;19925;-57
2023/07/29 05:06:54;;;;;;;;;;;22.30;64.10;;;;;;5034704;28;19925;-56
2023/07/29 05:09:21;;;;;;;;;;;22.30;64.10;;;;;;5042310;28;19933;-56
2023/07/29 05:11:48;;;;;;;;;;;22.30;64.10;;;;;;5036401;28;19948;-57
2023/07/29 05:14:15;;;;;;;;;;;22.30;64.10;;;;;;5047098;28;19996;-56
2023/07/29 05:16:42;;;;;;;;;;;22.30;64.10;;;;;;5038664;28;19925;-57
2023/07/29 05:19:09;;;;;;;;;;;22.30;64.10;;;;;;5047321;28;19963;-57
2023/07/29 05:21:36;;;;;;;;;;;22.30;64.10;;;;;;5038462;28;19940;-58
2023/07/29 05:24:04;;;;;;;;;;;22.30;64.10;;;;;;5039613;28;19931;-55
2023/07/29 05:26:31;;;;;;;;;;;22.30;64.00;;;;;;5050482;28;19951;-57
2023/07/29 05:28:57;;;;;;;;;;;22.30;64.00;;;;;;5051917;28;19978;-58
2023/07/29 05:31:24;;;;;;;;;;;22.30;64.00;;;;;;5042808;28;19928;-58
2023/07/29 05:33:51;;;;;;;;;;;22.30;64.00;;;;;;5036606;28;19925;-58
2023/07/29 05:36:18;;;;;;;;;;;22.30;64.00;;;;;;5044465;28;19921;-57
2023/07/29 05:38:44;;;;;;;;;;;22.30;63.90;;;;;;5064254;28;19937;-55
2023/07/29 05:41:13;;;;;;;;;;;22.30;63.90;;;;;;5043764;28;19932;-56
2023/07/29 05:43:40;;;;;;;;;;;22.30;63.80;;;;;;5048881;28;19975;-57
2023/07/29 05:46:06;;;;;;;;;;;22.30;63.80;;;;;;5036807;28;20012;-56
2023/07/29 05:48:33;;;;;;;;;;;22.30;63.80;;;;;;5039014;28;20061;-56
2023/07/29 05:51:00;;;;;;;;;;;22.30;63.80;;;;;;5042864;28;19975;-55
2023/07/29 05:53:27;;;;;;;;;;;22.30;63.90;;;;;;5034506;28;19925;-57
2023/07/29 05:55:54;;;;;;;;;;;22.30;63.80;;;;;;5043525;28;19925;-57
2023/07/29 05:58:22;;;;;;;;;;;22.30;64.00;;;;;;5043779;28;19933;-57
2023/07/29 06:00:49;;;;;;;;;;;22.40;64.00;;;;;;5047638;28;20042;-58
2023/07/29 06:03:16;;;;;;;;;;;22.30;64.00;;;;;;5039004;28;20396;-55
2023/07/29 06:05:42;;;;;;;;;;;22.30;64.00;;;;;;5042187;28;19936;-57
2023/07/29 06:08:09;;;;;;;;;;;22.30;64.00;;;;;;5042013;28;20015;-57
2023/07/29 06:10:36;;;;;;;;;;;22.30;63.90;;;;;;5040765;28;19926;-57
2023/07/29 06:13:03;;;;;;;;;;;22.30;63.80;;;;;;5039739;28;19925;-57
2023/07/29 06:15:31;;;;;;;;;;;22.30;63.80;;;;;;5037841;28;19943;-57
2023/07/29 06:17:58;;;;;;;;;;;22.30;63.80;;;;;;5039719;28;19990;-57
2023/07/29 06:20:25;;;;;;;;;;;22.30;63.80;;;;;;5044405;28;20003;-53
2023/07/29 06:22:52;;;;;;;;;;;22.40;63.90;;;;;;5035190;28;19932;-57
2023/07/29 06:25:19;;;;;;;;;;;22.30;63.80;;;;;;5040899;28;19924;-53
2023/07/29 06:27:45;;;;;;;;;;;22.40;63.90;;;;;;5037431;28;19977;-57
2023/07/29 06:30:12;;;;;;;;;;;22.40;63.90;;;;;;5040543;28;19929;-57
2023/07/29 06:32:40;;;;;;;;;;;22.40;63.80;;;;;;5031706;28;19929;-57
2023/07/29 06:35:07;;;;;;;;;;;22.40;63.80;;;;;;5030883;28;19933;-57
2023/07/29 06:37:34;;;;;;;;;;;22.40;63.80;;;;;;5046902;28;19960;-57
2023/07/29 06:40:01;;;;;;;;;;;22.40;63.90;;;;;;5035315;28;19932;-57
2023/07/29 06:42:28;;;;;;;;;;;22.40;63.90;;;;;;5052073;28;19925;-57
2023/07/29 06:44:54;;;;;;;;;;;22.40;63.90;;;;;;5034794;28;19929;-57
2023/07/29 06:47:21;;;;;;;;;;;22.40;63.90;;;;;;5058705;28;19933;-58
2023/07/29 06:49:49;;;;;;;;;;;22.40;63.80;;;;;;5046610;28;20362;-58
2023/07/29 06:52:16;;;;;;;;;;;22.40;63.90;;;;;;5049903;28;19970;-58
2023/07/29 06:54:43;;;;;;;;;;;22.40;63.90;;;;;;5046147;28;19931;-57
2023/07/29 06:57:09;;;;;;;;;;;22.40;63.90;;;;;;5045100;28;19951;-57
2023/07/29 06:59:36;;;;;;;;;;;22.40;63.90;;;;;;5030022;28;20046;-57
2023/07/29 07:02:03;;;;;;;;;;;22.40;64.70;;;;;;5042273;28;19928;-57
2023/07/29 07:04:30;;;;;;;;;;;22.40;64.00;;;;;;5047509;28;20007;-58
2023/07/29 07:06:58;;;;;;;;;;;22.40;64.10;;;;;;5043399;28;19929;-58
2023/07/29 07:09:25;;;;;;;;;;;22.40;64.10;;;;;;5048130;28;19925;-57
2023/07/29 07:11:52;;;;;;;;;;;22.40;64.20;;;;;;5044955;28;19982;-58
2023/07/29 07:14:19;;;;;;;;;;;22.40;64.20;;;;;;5041980;28;19925;-57
2023/07/29 07:16:45;;;;;;;;;;;22.40;64.20;;;;;;5045980;28;19929;-57
2023/07/29 07:19:12;;;;;;;;;;;22.40;64.30;;;;;;5046221;28;19932;-58
2023/07/29 07:21:39;;;;;;;;;;;22.40;64.30;;;;;;5067308;28;20483;-56
2023/07/29 07:24:07;;;;;;;;;;;22.40;64.30;;;;;;5046832;28;19925;-57
2023/07/29 07:26:34;;;;;;;;;;;22.40;64.40;;;;;;5052133;28;19992;-58
2023/07/29 07:29:01;;;;;;;;;;;22.40;64.50;;;;;;5070808;28;19929;-57
2023/07/29 07:31:28;;;;;;;;;;;22.40;64.60;;;;;;5047080;28;19925;-57
2023/07/29 07:33:54;;;;;;;;;;;22.40;64.60;;;;;;5057434;28;19940;-56
2023/07/29 07:36:21;;;;;;;;;;;22.40;64.60;;;;;;5041697;28;19929;-57
2023/07/29 07:38:48;;;;;;;;;;;22.40;64.60;;;;;;5052632;28;19925;-57
2023/07/29 07:41:16;;;;;;;;;;;22.40;64.60;;;;;;5046498;28;20274;-57
2023/07/29 07:43:43;;;;;;;;;;;22.40;64.60;;;;;;5045182;28;20170;-57
2023/07/29 07:46:09;;;;;;;;;;;22.40;64.70;;;;;;5071342;28;19925;-57
2023/07/29 07:48:36;;;;;;;;;;;22.40;64.70;;;;;;5042963;28;19925;-56
2023/07/29 07:51:10;;;;;;;;;;;22.40;64.60;;;;;;5053024;28;19925;-58
2023/07/29 07:53:37;;;;;;;;;;;22.40;64.70;;;;;;5053607;28;19925;-57
2023/07/29 07:56:04;;;;;;;;;;;22.40;64.70;;;;;;5052628;28;19925;-57
2023/07/29 07:58:32;;;;;;;;;;;22.40;64.80;;;;;;5049313;28;19947;-56
2023/07/29 08:01:01;;;;;;;;;;;22.40;64.80;;;;;;5052359;28;19925;-58
2023/07/29 08:03:28;;;;;;;;;;;22.40;64.80;;;;;;5049871;28;19924;-57
2023/07/29 08:05:55;;;;;;;;;;;22.40;64.80;;;;;;5045087;28;19924;-56
2023/07/29 08:08:22;;;;;;;;;;;22.40;64.80;;;;;;5051018;28;19933;-59
2023/07/29 08:10:48;;;;;;;;;;;22.40;64.70;;;;;;5050148;28;19929;-57
2023/07/29 08:13:15;;;;;;;;;;;22.40;64.60;;;;;;5068182;28;19960;-58
2023/07/29 08:15:43;;;;;;;;;;;22.40;64.60;;;;;;5051748;28;19939;-58
2023/07/29 08:18:10;;;;;;;;;;;22.40;64.70;;;;;;5048035;28;19982;-57
2023/07/29 08:20:37;;;;;;;;;;;22.40;64.70;;;;;;5051037;28;19967;-57
2023/07/29 08:23:04;;;;;;;;;;;22.40;64.80;;;;;;5051437;28;19925;-58
2023/07/29 08:25:31;;;;;;;;;;;22.50;64.90;;;;;;5047753;28;19925;-59
2023/07/29 08:27:57;;;;;;;;;;;22.50;64.80;;;;;;5049111;28;20317;-58
2023/07/29 08:30:24;;;;;;;;;;;22.50;64.80;;;;;;5058620;28;19979;-57
2023/07/29 08:32:52;;;;;;;;;;;22.50;64.80;;;;;;5052356;28;19932;-57
2023/07/29 08:35:19;;;;;;;;;;;22.50;64.80;;;;;;5034652;28;19948;-57
2023/07/29 08:37:46;;;;;;;;;;;22.50;64.90;;;;;;5047474;28;19928;-58
2023/07/29 08:40:13;;;;;;;;;;;22.50;64.80;;;;;;5050416;28;19936;-56
2023/07/29 08:42:40;;;;;;;;;;;22.50;64.80;;;;;;5066647;28;20011;-58
2023/07/29 08:45:07;;;;;;;;;;;22.50;65.00;;;;;;5044909;28;19927;-57
2023/07/29 08:47:34;;;;;;;;;;;22.50;64.90;;;;;;5039316;28;19975;-57
2023/07/29 08:50:04;;;;;;;;;;;22.50;64.80;;;;;;5046693;28;19974;-56
2023/07/29 08:52:31;;;;;;;;;;;22.50;64.90;;;;;;5041224;28;19936;-57
2023/07/29 08:54:58;;;;;;;;;;;22.50;64.90;;;;;;5051764;28;20012;-57
2023/07/29 08:57:25;;;;;;;;;;;22.50;64.90;;;;;;5051185;28;19932;-53
2023/07/29 08:59:52;;;;;;;;;;;22.50;65.00;;;;;;5052222;28;19929;-58
2023/07/29 09:02:19;;;;;;;;;;;22.50;65.00;;;;;;5066729;28;19931;-57
2023/07/29 09:04:46;;;;;;;;;;;22.50;65.00;;;;;;5051983;28;19929;-57
2023/07/29 09:07:14;;;;;;;;;;;22.50;65.00;;;;;;5040261;28;20050;-58
2023/07/29 09:09:41;;;;;;;;;;;22.50;65.00;;;;;;5058292;28;20033;-60
2023/07/29 09:12:07;;;;;;;;;;;22.60;65.20;;;;;;5043117;28;19932;-61
2023/07/29 09:14:34;;;;;;;;;;;22.60;65.30;;;;;;5052515;28;19928;-60
2023/07/29 09:17:01;;;;;;;;;;;22.60;65.30;;;;;;5051093;28;19974;-61
2023/07/29 09:19:28;;;;;;;;;;;22.60;65.40;;;;;;5047607;28;19925;-60
2023/07/29 09:21:55;;;;;;;;;;;22.60;65.50;;;;;;5045354;28;19928;-61
2023/07/29 09:24:23;;;;;;;;;;;22.60;65.60;;;;;;5045941;28;19924;-60
2023/07/29 09:26:49;;;;;;;;;;;22.60;65.50;;;;;;5041555;28;19929;-61
2023/07/29 09:29:16;;;;;;;;;;;22.60;65.60;;;;;;5045046;28;19925;-60
2023/07/29 09:31:43;;;;;;;;;;;22.60;65.50;;;;;;5044824;28;19936;-61
2023/07/29 09:34:10;;;;;;;;;;;22.60;66.40;;;;;;5044945;28;19931;-60
2023/07/29 09:36:36;;;;;;;;;;;22.60;65.70;;;;;;5055049;28;19931;-61
2023/07/29 09:39:04;;;;;;;;;;;22.60;65.80;;;;;;5043186;28;19935;-57
2023/07/29 09:41:32;;;;;;;;;;;22.60;65.80;;;;;;5047822;28;19931;-61
2023/07/29 09:43:59;;;;;;;;;;;22.60;66.00;;;;;;5050634;28;19932;-61
2023/07/29 09:46:26;;;;;;;;;;;22.60;66.10;;;;;;5043547;28;19924;-61
2023/07/29 09:48:54;;;;;;;;;;;22.60;66.10;;;;;;5048847;28;19928;-61
2023/07/29 09:51:20;;;;;;;;;;;22.60;66.10;;;;;;5047551;28;19929;-60
2023/07/29 09:53:47;;;;;;;;;;;22.60;66.00;;;;;;5046279;28;19925;-60
2023/07/29 09:56:14;;;;;;;;;;;22.60;66.00;;;;;;5046137;28;19947;-59
2023/07/29 09:58:42;;;;;;;;;;;22.60;66.00;;;;;;5048480;28;19929;-61
2023/07/29 10:01:09;;;;;;;;;;;22.60;65.90;;;;;;5041399;28;19925;-61
2023/07/29 10:03:36;;;;;;;;;;;22.60;66.00;;;;;;5041773;28;19925;-62
2023/07/29 10:06:03;;;;;;;;;;;22.70;66.00;;;;;;5047442;28;19936;-61
2023/07/29 10:08:30;;;;;;;;;;;22.60;65.90;;;;;;5049244;28;19936;-61
2023/07/29 10:10:57;;;;;;;;;;;22.60;65.80;;;;;;5050218;28;20016;-61
2023/07/29 10:13:24;;;;;;;;;;;22.60;65.80;;;;;;5043184;28;19970;-59
2023/07/29 10:15:52;;;;;;;;;;;22.60;65.80;;;;;;5045084;28;20298;-62
2023/07/29 10:18:19;;;;;;;;;;;22.70;66.00;;;;;;5048188;28;19979;-62
2023/07/29 10:20:46;;;;;;;;;;;22.70;65.90;;;;;;5042324;28;19972;-61
2023/07/29 10:23:13;;;;;;;;;;;22.70;65.80;;;;;;5056414;28;19991;-61
2023/07/29 10:25:41;;;;;;;;;;;22.70;65.80;;;;;;5043862;28;19929;-61
2023/07/29 10:28:08;;;;;;;;;;;22.70;65.80;;;;;;5050180;28;19928;-60
2023/07/29 10:30:35;;;;;;;;;;;22.70;65.70;;;;;;5049058;28;19929;-61
2023/07/29 10:33:04;;;;;;;;;;;22.70;65.60;;;;;;5039400;28;20373;-61
2023/07/29 10:35:31;;;;;;;;;;;22.70;65.60;;;;;;5038791;28;19925;-61
2023/07/29 10:37:57;;;;;;;;;;;22.70;65.60;;;;;;5053651;28;19927;-62
2023/07/29 10:40:24;;;;;;;;;;;22.70;65.50;;;;;;5033071;28;19929;-61
2023/07/29 10:43:01;;;;;;;;;;;22.70;65.60;;;;;;5050003;28;19925;-61
2023/07/29 10:45:28;;;;;;;;;;;22.70;65.50;;;;;;5050196;28;19925;-60
2023/07/29 10:47:55;;;;;;;;;;;22.70;65.50;;;;;;5048646;28;19925;-60
2023/07/29 10:50:23;;;;;;;;;;;22.70;65.40;;;;;;5051666;28;19935;-59
2023/07/29 10:52:50;;;;;;;;;;;22.70;65.50;;;;;;5053330;28;19921;-60
2023/07/29 10:55:25;;;;;;;;;;;22.70;65.40;;;;;;5045735;28;19925;-60
2023/07/29 10:57:51;;;;;;;;;;;22.70;65.40;;;;;;5039882;28;19932;-60
2023/07/29 11:00:19;;;;;;;;;;;22.70;65.30;;;;;;5052419;28;19932;-61
2023/07/29 11:02:50;;;;;;;;;;;22.70;65.20;;;;;;5038301;28;19933;-60
2023/07/29 11:05:18;;;;;;;;;;;22.70;65.20;;;;;;5053478;28;19929;-61
2023/07/29 11:07:46;;;;;;;;;;;22.70;65.20;;;;;;5053578;28;19933;-61
2023/07/29 11:10:13;;;;;;;;;;;22.70;65.20;;;;;;5044197;28;19928;-61
2023/07/29 11:12:45;;;;;;;;;;;22.70;65.10;;;;;;5051602;28;19928;-62
2023/07/29 11:15:16;;;;;;;;;;;22.70;65.10;;;;;;5053170;28;20020;-60
2023/07/29 11:17:43;;;;;;;;;;;22.70;65.00;;;;;;5044838;28;19925;-62
2023/07/29 11:20:10;;;;;;;;;;;22.70;64.90;;;;;;5045036;28;19929;-61
2023/07/29 11:22:36;;;;;;;;;;;22.70;64.90;;;;;;5050560;28;19970;-60
2023/07/29 11:25:05;;;;;;;;;;;22.70;64.90;;;;;;5044894;28;19925;-61
2023/07/29 11:27:32;;;;;;;;;;;22.70;64.80;;;;;;5033569;28;19932;-61
2023/07/29 11:29:59;;;;;;;;;;;22.70;64.80;;;;;;5033736;28;20007;-61
2023/07/29 11:32:26;;;;;;;;;;;22.70;64.80;;;;;;5038840;28;19925;-60
2023/07/29 11:34:53;;;;;;;;;;;22.70;64.70;;;;;;5053304;28;19925;-61
2023/07/29 11:37:21;;;;;;;;;;;22.70;64.70;;;;;;5045424;28;19983;-60
2023/07/29 11:39:48;;;;;;;;;;;22.70;64.70;;;;;;5056322;28;19931;-61
2023/07/29 11:42:16;;;;;;;;;;;22.70;64.70;;;;;;5048454;28;19986;-60
2023/07/29 11:44:43;;;;;;;;;;;22.70;64.70;;;;;;5054138;28;19986;-61
2023/07/29 11:47:09;;;;;;;;;;;22.70;64.60;;;;;;5052647;28;19992;-61
2023/07/29 11:49:36;;;;;;;;;;;22.70;64.50;;;;;;5048236;28;19925;-61
2023/07/29 11:52:03;;;;;;;;;;;22.80;64.60;;;;;;5053782;28;19931;-60
2023/07/29 11:54:30;;;;;;;;;;;22.70;64.50;;;;;;5045356;28;19960;-60
2023/07/29 11:56:57;;;;;;;;;;;22.70;64.40;;;;;;5044254;28;19960;-60
2023/07/29 11:59:25;;;;;;;;;;;22.70;64.40;;;;;;5044864;28;19925;-60
2023/07/29 12:01:52;;;;;;;;;;;22.70;64.40;;;;;;5049614;28;19921;-60
2023/07/29 12:04:19;;;;;;;;;;;22.70;64.30;;;;;;5055869;28;19979;-60
2023/07/29 12:06:46;;;;;;;;;;;22.70;64.30;;;;;;5046021;28;19932;-62
2023/07/29 12:09:13;;;;;;;;;;;22.70;64.30;;;;;;5066757;28;20002;-60
2023/07/29 12:11:40;;;;;;;;;;;22.70;64.30;;;;;;5048771;28;21023;-61
2023/07/29 12:14:08;;;;;;;;;;;22.70;64.30;;;;;;5050943;28;19929;-60
2023/07/29 12:16:42;;;;;;;;;;;22.70;64.10;;;;;;5050199;28;20285;-60
2023/07/29 12:19:09;;;;;;;;;;;22.70;64.00;;;;;;5043377;28;19925;-61
2023/07/29 12:21:35;;;;;;;;;;;22.70;64.00;;;;;;5038881;28;19933;-61
2023/07/29 12:24:03;;;;;;;;;;;22.70;63.90;;;;;;5039029;28;19928;-66
2023/07/29 12:26:30;;;;;;;;;;;22.70;64.00;;;;;;5058627;28;19932;-62
2023/07/29 12:28:57;;;;;;;;;;;22.80;64.10;;;;;;5047175;28;19929;-62
2023/07/29 12:31:29;;;;;;;;;;;22.80;64.80;;;;;;5041358;28;19951;-62
2023/07/29 12:33:59;;;;;;;;;;;22.80;64.00;;;;;;5046214;28;19986;-62
2023/07/29 12:36:28;;;;;;;;;;;22.80;64.00;;;;;;5044458;28;19932;-59
2023/07/29 12:38:55;;;;;;;;;;;22.80;63.80;;;;;;5051438;28;19925;-62
2023/07/29 12:41:21;;;;;;;;;;;22.80;63.70;;;;;;5037020;28;19929;-62
2023/07/29 12:43:48;;;;;;;;;;;22.80;63.70;;;;;;5047297;28;19924;-63
2023/07/29 12:46:15;;;;;;;;;;;22.80;63.60;;;;;;5040488;28;19932;-60
2023/07/29 12:48:42;;;;;;;;;;;22.80;63.40;;;;;;5044548;28;19925;-63
2023/07/29 12:51:10;;;;;;;;;;;22.80;63.50;;;;;;5049625;28;19924;-63
2023/07/29 12:53:37;;;;;;;;;;;22.80;63.40;;;;;;5043265;28;19929;-63
2023/07/29 12:56:04;;;;;;;;;;;22.80;63.30;;;;;;5044707;28;19963;-60
2023/07/29 12:58:31;;;;;;;;;;;22.80;63.30;;;;;;5039508;28;19928;-63
2023/07/29 13:00:57;;;;;;;;;;;22.80;63.20;;;;;;5038944;28;19933;-63
2023/07/29 13:03:24;;;;;;;;;;;22.80;63.10;;;;;;5036080;28;20277;-63
2023/07/29 13:05:51;;;;;;;;;;;22.80;63.10;;;;;;5039630;28;20371;-61
2023/07/29 13:08:19;;;;;;;;;;;22.80;63.10;;;;;;5038670;28;19926;-60
2023/07/29 13:10:46;;;;;;;;;;;22.80;63.10;;;;;;5048298;28;19929;-63
2023/07/29 13:13:12;;;;;;;;;;;22.80;63.00;;;;;;5040670;28;19932;-62
2023/07/29 13:15:39;;;;;;;;;;;22.80;63.00;;;;;;5041563;28;19925;-62
2023/07/29 13:18:06;;;;;;;;;;;22.80;63.00;;;;;;5043761;28;19928;-62
2023/07/29 13:20:34;;;;;;;;;;;22.80;62.90;;;;;;5049552;28;19925;-63
2023/07/29 13:23:01;;;;;;;;;;;22.80;62.80;;;;;;5037477;28;19933;-63
2023/07/29 13:25:29;;;;;;;;;;;22.80;62.80;;;;;;5046890;28;19924;-63
2023/07/29 13:27:56;;;;;;;;;;;22.80;62.80;;;;;;5037173;28;19933;-61
2023/07/29 13:30:23;;;;;;;;;;;22.80;62.70;;;;;;5050440;28;20385;-62
2023/07/29 13:32:49;;;;;;;;;;;22.80;62.60;;;;;;5063751;28;19947;-62
2023/07/29 13:35:16;;;;;;;;;;;22.80;62.60;;;;;;5047074;28;19933;-61
2023/07/29 13:37:43;;;;;;;;;;;22.80;62.60;;;;;;5043129;28;20028;-61
2023/07/29 13:40:10;;;;;;;;;;;22.80;62.60;;;;;;5048380;28;19932;-61
2023/07/29 13:42:38;;;;;;;;;;;22.80;62.50;;;;;;5041652;28;19933;-62
2023/07/29 13:45:05;;;;;;;;;;;22.80;62.50;;;;;;5049900;28;19936;-62
2023/07/29 13:47:32;;;;;;;;;;;22.80;62.50;;;;;;5058321;28;19933;-62
2023/07/29 13:49:59;;;;;;;;;;;22.80;62.40;;;;;;5041488;28;19925;-62
2023/07/29 13:52:25;;;;;;;;;;;22.80;62.40;;;;;;5040741;28;19924;-61
2023/07/29 13:54:52;;;;;;;;;;;22.80;62.30;;;;;;5050139;28;19932;-62
2023/07/29 13:57:19;;;;;;;;;;;22.80;62.30;;;;;;5047754;28;19929;-62
2023/07/29 13:59:48;;;;;;;;;;;22.80;62.30;;;;;;5042624;28;19984;-61
2023/07/29 14:02:14;;;;;;;;;;;22.80;62.30;;;;;;5029413;28;19979;-61
2023/07/29 14:04:41;;;;;;;;;;;22.80;62.20;;;;;;5047672;28;19928;-61
2023/07/29 14:07:08;;;;;;;;;;;22.90;62.30;;;;;;5032563;28;19947;-61
2023/07/29 14:09:35;;;;;;;;;;;22.80;62.20;;;;;;5060789;28;19932;-62
2023/07/29 14:12:01;;;;;;;;;;;22.90;62.30;;;;;;5043098;28;19929;-60
2023/07/29 14:14:28;;;;;;;;;;;22.80;62.10;;;;;;5041834;28;19929;-60
2023/07/29 14:16:57;;;;;;;;;;;22.90;62.20;;;;;;5043053;28;19925;-62